createdAt,value
2023-05-07T00:00:42.201Z,0.00
2023-05-07T00:01:42.171Z,0.00
2023-05-07T00:02:42.203Z,0.00
2023-05-07T00:03:42.259Z,0.00
2023-05-07T00:04:42.165Z,0.00
2023-05-07T00:05:42.176Z,0.00
2023-05-07T00:06:42.118Z,0.00
2023-05-07T00:07:42.107Z,0.00
2023-05-07T00:08:42.098Z,0.00
2023-05-07T00:09:42.110Z,0.00
2023-05-07T00:10:42.076Z,0.00
2023-05-07T00:11:42.069Z,0.00
2023-05-07T00:12:42.064Z,0.00
2023-05-07T00:13:42.047Z,0.00
2023-05-07T00:14:42.047Z,0.00
2023-05-07T00:15:41.999Z,0.00
2023-05-07T00:16:42.013Z,0.00
2023-05-07T00:17:42.046Z,0.00
2023-05-07T00:18:42.017Z,0.00
2023-05-07T00:19:42.017Z,0.00
2023-05-07T00:20:41.966Z,0.00
2023-05-07T00:21:41.948Z,0.00
2023-05-07T00:22:41.936Z,0.00
2023-05-07T00:23:41.965Z,0.00
2023-05-07T00:24:41.909Z,0.00
2023-05-07T00:25:41.901Z,0.00
2023-05-07T00:26:41.883Z,0.00
2023-05-07T00:27:41.930Z,0.00
2023-05-07T00:28:41.911Z,0.00
2023-05-07T00:29:41.863Z,0.00
2023-05-07T00:30:41.851Z,0.00
2023-05-07T00:31:41.897Z,0.00
2023-05-07T00:32:41.888Z,0.00
2023-05-07T00:33:41.849Z,0.00
2023-05-07T00:34:41.801Z,0.00
2023-05-07T00:35:41.827Z,0.00
2023-05-07T00:36:41.782Z,0.00
2023-05-07T00:37:41.815Z,0.00
2023-05-07T00:38:41.768Z,0.00
2023-05-07T00:39:41.752Z,0.00
2023-05-07T00:40:41.733Z,0.00
2023-05-07T00:41:41.730Z,0.00
2023-05-07T00:42:41.764Z,0.00
2023-05-07T00:43:41.694Z,0.00
2023-05-07T00:44:41.697Z,0.00
2023-05-07T00:45:41.723Z,0.00
2023-05-07T00:46:41.680Z,0.00
2023-05-07T00:47:41.713Z,0.00
2023-05-07T00:48:41.640Z,0.00
2023-05-07T00:49:41.630Z,0.00
2023-05-07T00:50:41.622Z,0.00
2023-05-07T00:51:41.644Z,0.00
2023-05-07T00:52:41.594Z,0.00
2023-05-07T00:53:41.579Z,0.00
2023-05-07T00:54:41.571Z,0.00
2023-05-07T00:55:41.582Z,0.00
2023-05-07T00:56:41.557Z,0.00
2023-05-07T00:57:41.574Z,0.00
2023-05-07T00:58:41.527Z,0.00
2023-05-07T00:59:41.523Z,0.00
2023-05-07T01:00:41.538Z,0.00
2023-05-07T01:01:41.679Z,0.00
2023-05-07T01:02:41.506Z,0.00
2023-05-07T01:03:41.497Z,0.00
2023-05-07T01:04:41.526Z,0.00
2023-05-07T01:05:41.482Z,0.00
2023-05-07T01:06:41.438Z,0.00
2023-05-07T01:07:41.455Z,0.00
2023-05-07T01:08:41.420Z,0.00
2023-05-07T01:09:41.429Z,0.00
2023-05-07T01:10:41.444Z,0.00
2023-05-07T01:11:41.395Z,0.00
2023-05-07T01:12:41.493Z,0.00
2023-05-07T01:13:41.353Z,0.00
2023-05-07T01:14:41.355Z,0.00
2023-05-07T01:15:41.357Z,0.00
2023-05-07T01:16:41.341Z,0.00
2023-05-07T01:17:41.378Z,0.00
2023-05-07T01:18:41.307Z,0.00
2023-05-07T01:19:41.333Z,0.00
2023-05-07T01:20:41.283Z,0.00
2023-05-07T01:21:41.270Z,0.00
2023-05-07T01:22:41.267Z,0.00
2023-05-07T01:23:41.249Z,0.00
2023-05-07T01:24:41.261Z,0.00
2023-05-07T01:25:41.214Z,0.00
2023-05-07T01:26:41.207Z,0.00
2023-05-07T01:27:41.205Z,0.00
2023-05-07T01:28:41.236Z,0.00
2023-05-07T01:29:41.211Z,0.00
2023-05-07T01:30:41.156Z,0.00
2023-05-07T01:31:41.268Z,0.00
2023-05-07T01:32:41.195Z,0.00
2023-05-07T01:33:41.212Z,0.00
2023-05-07T01:34:41.126Z,0.00
2023-05-07T01:35:41.113Z,0.00
2023-05-07T01:36:41.104Z,0.00
2023-05-07T01:37:41.107Z,0.00
2023-05-07T01:38:41.137Z,0.00
2023-05-07T01:39:41.093Z,0.00
2023-05-07T01:40:41.040Z,0.00
2023-05-07T01:41:41.059Z,0.00
2023-05-07T01:42:41.071Z,0.00
2023-05-07T01:43:41.030Z,0.00
2023-05-07T01:44:40.989Z,0.00
2023-05-07T01:45:40.978Z,0.00
2023-05-07T01:46:41.036Z,0.00
2023-05-07T01:47:41.028Z,0.00
2023-05-07T01:48:40.974Z,0.00
2023-05-07T01:49:40.944Z,0.00
2023-05-07T01:50:40.935Z,0.00
2023-05-07T01:51:40.924Z,0.00
2023-05-07T01:52:40.956Z,0.00
2023-05-07T01:53:40.900Z,0.00
2023-05-07T01:54:40.890Z,0.00
2023-05-07T01:55:40.881Z,0.00
2023-05-07T01:56:40.920Z,0.00
2023-05-07T01:57:40.927Z,0.00
2023-05-07T01:58:40.855Z,0.00
2023-05-07T01:59:40.847Z,0.00
2023-05-07T02:00:40.809Z,0.00
2023-05-07T02:01:40.859Z,0.00
2023-05-07T02:02:40.926Z,0.00
2023-05-07T02:03:40.906Z,0.00
2023-05-07T02:04:40.786Z,0.00
2023-05-07T02:05:40.760Z,0.00
2023-05-07T02:06:40.764Z,0.00
2023-05-07T02:07:40.744Z,0.00
2023-05-07T02:08:40.790Z,0.00
2023-05-07T02:09:40.712Z,0.00
2023-05-07T02:10:40.702Z,0.00
2023-05-07T02:11:40.737Z,0.00
2023-05-07T02:12:40.672Z,0.00
2023-05-07T02:13:40.660Z,0.00
2023-05-07T02:14:40.646Z,0.00
2023-05-07T02:15:40.685Z,0.00
2023-05-07T02:16:40.702Z,0.00
2023-05-07T02:17:40.676Z,0.00
2023-05-07T02:18:40.607Z,0.00
2023-05-07T02:19:40.600Z,0.00
2023-05-07T02:20:40.617Z,0.00
2023-05-07T02:21:40.569Z,0.00
2023-05-07T02:22:40.576Z,0.00
2023-05-07T02:23:40.548Z,0.00
2023-05-07T02:24:40.538Z,0.00
2023-05-07T02:25:40.558Z,0.00
2023-05-07T02:26:40.513Z,0.00
2023-05-07T02:27:40.493Z,0.00
2023-05-07T02:28:40.500Z,0.00
2023-05-07T02:29:40.526Z,0.00
2023-05-07T02:30:40.499Z,0.00
2023-05-07T02:31:40.500Z,0.00
2023-05-07T02:32:40.476Z,0.00
2023-05-07T02:33:40.465Z,0.00
2023-05-07T02:34:40.478Z,0.00
2023-05-07T02:35:40.422Z,0.00
2023-05-07T02:36:40.412Z,0.00
2023-05-07T02:37:40.421Z,0.00
2023-05-07T02:38:40.392Z,0.00
2023-05-07T02:39:40.405Z,0.00
2023-05-07T02:40:40.398Z,0.00
2023-05-07T02:41:40.341Z,0.00
2023-05-07T02:42:40.343Z,0.00
2023-05-07T02:43:40.338Z,0.00
2023-05-07T02:44:40.338Z,0.00
2023-05-07T02:45:40.330Z,0.00
2023-05-07T02:46:40.297Z,0.00
2023-05-07T02:47:40.332Z,0.00
2023-05-07T02:48:40.293Z,0.00
2023-05-07T02:49:40.298Z,0.00
2023-05-07T02:50:40.271Z,0.00
2023-05-07T02:51:40.219Z,0.00
2023-05-07T02:52:40.213Z,0.00
2023-05-07T02:53:40.260Z,0.00
2023-05-07T02:54:40.205Z,0.00
2023-05-07T02:55:40.228Z,0.00
2023-05-07T02:56:40.186Z,0.00
2023-05-07T02:57:40.211Z,0.00
2023-05-07T02:58:40.183Z,0.00
2023-05-07T02:59:40.167Z,0.00
2023-05-07T03:00:40.130Z,0.00
2023-05-07T03:01:40.284Z,0.00
2023-05-07T03:02:40.112Z,0.00
2023-05-07T03:03:40.157Z,0.00
2023-05-07T03:04:40.136Z,0.00
2023-05-07T03:05:40.077Z,0.00
2023-05-07T03:06:40.073Z,0.00
2023-05-07T03:07:40.137Z,0.00
2023-05-07T03:08:40.081Z,0.00
2023-05-07T03:09:40.036Z,0.00
2023-05-07T03:10:40.046Z,0.00
2023-05-07T03:11:40.001Z,0.00
2023-05-07T03:12:40.057Z,0.00
2023-05-07T03:13:39.988Z,0.00
2023-05-07T03:14:39.951Z,0.00
2023-05-07T03:15:39.988Z,0.00
2023-05-07T03:16:39.937Z,0.00
2023-05-07T03:17:40.082Z,0.00
2023-05-07T03:18:39.968Z,0.00
2023-05-07T03:19:39.916Z,0.00
2023-05-07T03:20:39.980Z,0.00
2023-05-07T03:21:39.941Z,0.00
2023-05-07T03:22:39.913Z,0.00
2023-05-07T03:23:39.886Z,0.00
2023-05-07T03:24:39.855Z,0.00
2023-05-07T03:25:39.861Z,0.00
2023-05-07T03:26:39.872Z,0.00
2023-05-07T03:27:39.838Z,5.62
2023-05-07T03:28:39.809Z,5.62
2023-05-07T03:29:39.799Z,5.62
2023-05-07T03:30:39.797Z,5.62
2023-05-07T03:31:39.891Z,5.62
2023-05-07T03:32:39.829Z,5.62
2023-05-07T03:33:39.762Z,5.62
2023-05-07T03:34:39.745Z,5.62
2023-05-07T03:35:39.775Z,5.62
2023-05-07T03:36:39.771Z,5.62
2023-05-07T03:37:39.734Z,5.62
2023-05-07T03:38:39.709Z,5.62
2023-05-07T03:39:39.679Z,5.62
2023-05-07T03:40:39.726Z,5.62
2023-05-07T03:41:39.698Z,11.25
2023-05-07T03:42:39.653Z,11.25
2023-05-07T03:43:39.644Z,11.25
2023-05-07T03:44:39.605Z,11.25
2023-05-07T03:45:39.655Z,11.25
2023-05-07T03:46:39.644Z,11.25
2023-05-07T03:47:39.642Z,11.25
2023-05-07T03:48:39.585Z,11.25
2023-05-07T03:49:39.605Z,5.62
2023-05-07T03:50:39.594Z,11.25
2023-05-07T03:51:39.545Z,11.25
2023-05-07T03:52:39.557Z,11.25
2023-05-07T03:53:39.524Z,11.25
2023-05-07T03:54:39.553Z,16.88
2023-05-07T03:55:39.545Z,16.88
2023-05-07T03:56:39.513Z,16.88
2023-05-07T03:57:39.476Z,22.50
2023-05-07T03:58:39.492Z,16.88
2023-05-07T03:59:39.504Z,22.50
2023-05-07T04:00:39.532Z,22.50
2023-05-07T04:01:39.506Z,22.50
2023-05-07T04:02:39.639Z,22.50
2023-05-07T04:03:39.555Z,28.12
2023-05-07T04:04:39.454Z,28.12
2023-05-07T04:05:39.413Z,22.50
2023-05-07T04:06:39.396Z,22.50
2023-05-07T04:07:39.398Z,33.75
2023-05-07T04:08:39.344Z,39.38
2023-05-07T04:09:39.404Z,56.25
2023-05-07T04:10:39.366Z,50.62
2023-05-07T04:11:39.331Z,45.00
2023-05-07T04:12:39.372Z,45.00
2023-05-07T04:13:39.332Z,45.00
2023-05-07T04:14:39.335Z,45.00
2023-05-07T04:15:39.275Z,45.00
2023-05-07T04:16:39.321Z,45.00
2023-05-07T04:17:39.310Z,50.62
2023-05-07T04:18:39.287Z,61.88
2023-05-07T04:19:39.227Z,61.88
2023-05-07T04:20:39.227Z,61.88
2023-05-07T04:21:39.235Z,67.50
2023-05-07T04:22:39.215Z,67.50
2023-05-07T04:23:39.226Z,67.50
2023-05-07T04:24:39.178Z,67.50
2023-05-07T04:25:39.192Z,67.50
2023-05-07T04:26:39.164Z,73.12
2023-05-07T04:27:39.192Z,67.50
2023-05-07T04:28:39.177Z,61.88
2023-05-07T04:29:39.125Z,73.12
2023-05-07T04:30:39.111Z,78.75
2023-05-07T04:31:39.173Z,73.12
2023-05-07T04:32:39.144Z,61.88
2023-05-07T04:33:39.089Z,67.50
2023-05-07T04:34:39.061Z,78.75
2023-05-07T04:35:39.051Z,84.38
2023-05-07T04:36:39.034Z,84.38
2023-05-07T04:37:39.099Z,84.38
2023-05-07T04:38:39.024Z,78.75
2023-05-07T04:39:39.004Z,73.12
2023-05-07T04:40:38.993Z,61.88
2023-05-07T04:41:38.983Z,56.25
2023-05-07T04:42:39.006Z,56.25
2023-05-07T04:43:38.965Z,56.25
2023-05-07T04:44:38.956Z,67.50
2023-05-07T04:45:38.946Z,61.88
2023-05-07T04:46:38.983Z,73.12
2023-05-07T04:47:38.985Z,73.12
2023-05-07T04:48:38.890Z,73.12
2023-05-07T04:49:38.878Z,73.12
2023-05-07T04:50:38.883Z,67.50
2023-05-07T04:51:38.893Z,73.12
2023-05-07T04:52:38.854Z,78.75
2023-05-07T04:53:38.852Z,73.12
2023-05-07T04:54:38.842Z,84.38
2023-05-07T04:55:38.819Z,78.75
2023-05-07T04:56:38.839Z,78.75
2023-05-07T04:57:38.811Z,78.75
2023-05-07T04:58:38.786Z,84.38
2023-05-07T04:59:38.761Z,84.38
2023-05-07T05:00:38.790Z,90.00
2023-05-07T05:01:38.806Z,90.00
2023-05-07T05:02:38.807Z,84.38
2023-05-07T05:03:38.844Z,90.00
2023-05-07T05:04:38.724Z,95.62
2023-05-07T05:05:38.756Z,95.62
2023-05-07T05:06:38.709Z,95.62
2023-05-07T05:07:38.681Z,95.62
2023-05-07T05:08:38.667Z,90.00
2023-05-07T05:09:38.669Z,90.00
2023-05-07T05:10:38.681Z,95.62
2023-05-07T05:11:38.683Z,135.00
2023-05-07T05:12:38.664Z,146.25
2023-05-07T05:13:38.598Z,146.25
2023-05-07T05:14:38.633Z,140.62
2023-05-07T05:15:38.638Z,140.62
2023-05-07T05:16:38.736Z,146.25
2023-05-07T05:17:38.698Z,146.25
2023-05-07T05:18:38.570Z,151.88
2023-05-07T05:19:38.590Z,157.50
2023-05-07T05:20:38.538Z,151.88
2023-05-07T05:21:38.524Z,146.25
2023-05-07T05:22:38.505Z,135.00
2023-05-07T05:23:38.495Z,129.38
2023-05-07T05:24:38.538Z,129.38
2023-05-07T05:25:38.484Z,135.00
2023-05-07T05:26:38.457Z,135.00
2023-05-07T05:27:38.446Z,135.00
2023-05-07T05:28:38.451Z,129.38
2023-05-07T05:29:38.463Z,129.38
2023-05-07T05:30:38.413Z,118.12
2023-05-07T05:31:38.452Z,112.50
2023-05-07T05:32:38.422Z,118.12
2023-05-07T05:33:38.413Z,118.12
2023-05-07T05:34:38.423Z,118.12
2023-05-07T05:35:38.351Z,112.50
2023-05-07T05:36:38.340Z,106.88
2023-05-07T05:37:38.324Z,123.75
2023-05-07T05:38:38.374Z,135.00
2023-05-07T05:39:38.295Z,135.00
2023-05-07T05:40:38.299Z,146.25
2023-05-07T05:41:38.276Z,163.12
2023-05-07T05:42:38.265Z,174.38
2023-05-07T05:43:38.279Z,185.62
2023-05-07T05:44:38.242Z,202.50
2023-05-07T05:45:38.242Z,292.50
2023-05-07T05:46:38.289Z,393.75
2023-05-07T05:47:38.305Z,371.25
2023-05-07T05:48:38.240Z,393.75
2023-05-07T05:49:38.188Z,365.62
2023-05-07T05:50:38.184Z,326.25
2023-05-07T05:51:38.169Z,292.50
2023-05-07T05:52:38.200Z,292.50
2023-05-07T05:53:38.151Z,298.12
2023-05-07T05:54:38.142Z,298.12
2023-05-07T05:55:38.121Z,298.12
2023-05-07T05:56:38.126Z,281.25
2023-05-07T05:57:38.181Z,270.00
2023-05-07T05:58:38.084Z,264.38
2023-05-07T05:59:38.076Z,270.00
2023-05-07T06:00:38.067Z,270.00
2023-05-07T06:01:38.146Z,247.50
2023-05-07T06:02:38.321Z,236.25
2023-05-07T06:03:38.027Z,247.50
2023-05-07T06:04:38.103Z,281.25
2023-05-07T06:05:38.006Z,270.00
2023-05-07T06:06:38.112Z,241.88
2023-05-07T06:07:37.978Z,236.25
2023-05-07T06:08:37.973Z,247.50
2023-05-07T06:09:37.952Z,264.38
2023-05-07T06:10:37.999Z,258.75
2023-05-07T06:11:37.975Z,270.00
2023-05-07T06:12:37.953Z,348.75
2023-05-07T06:13:37.904Z,376.88
2023-05-07T06:14:37.894Z,360.00
2023-05-07T06:15:37.936Z,343.12
2023-05-07T06:16:37.956Z,360.00
2023-05-07T06:17:37.901Z,382.50
2023-05-07T06:18:37.838Z,410.62
2023-05-07T06:19:37.845Z,382.50
2023-05-07T06:20:37.879Z,382.50
2023-05-07T06:21:37.828Z,365.62
2023-05-07T06:22:37.813Z,343.12
2023-05-07T06:23:37.805Z,331.88
2023-05-07T06:24:37.802Z,326.25
2023-05-07T06:25:37.820Z,326.25
2023-05-07T06:26:37.766Z,309.38
2023-05-07T06:27:37.763Z,354.38
2023-05-07T06:28:37.745Z,405.00
2023-05-07T06:29:37.752Z,371.25
2023-05-07T06:30:37.765Z,343.12
2023-05-07T06:31:37.745Z,405.00
2023-05-07T06:32:37.730Z,421.88
2023-05-07T06:33:37.690Z,376.88
2023-05-07T06:34:37.712Z,343.12
2023-05-07T06:35:37.671Z,320.62
2023-05-07T06:36:37.651Z,343.12
2023-05-07T06:37:37.631Z,337.50
2023-05-07T06:38:37.637Z,326.25
2023-05-07T06:39:37.646Z,337.50
2023-05-07T06:40:37.606Z,303.75
2023-05-07T06:41:37.627Z,326.25
2023-05-07T06:42:37.572Z,354.38
2023-05-07T06:43:37.614Z,343.12
2023-05-07T06:44:37.586Z,365.62
2023-05-07T06:45:37.551Z,472.50
2023-05-07T06:46:37.581Z,472.50
2023-05-07T06:47:37.572Z,433.12
2023-05-07T06:48:37.550Z,382.50
2023-05-07T06:49:37.505Z,343.12
2023-05-07T06:50:37.493Z,326.25
2023-05-07T06:51:37.470Z,343.12
2023-05-07T06:52:37.456Z,376.88
2023-05-07T06:53:37.512Z,421.88
2023-05-07T06:54:37.442Z,461.25
2023-05-07T06:55:37.437Z,500.62
2023-05-07T06:56:37.438Z,483.75
2023-05-07T06:57:37.456Z,461.25
2023-05-07T06:58:37.423Z,433.12
2023-05-07T06:59:37.379Z,421.88
2023-05-07T07:00:37.361Z,388.12
2023-05-07T07:01:37.426Z,388.12
2023-05-07T07:02:37.411Z,393.75
2023-05-07T07:03:37.319Z,393.75
2023-05-07T07:04:37.360Z,371.25
2023-05-07T07:05:37.321Z,388.12
2023-05-07T07:06:37.301Z,393.75
2023-05-07T07:07:37.339Z,388.12
2023-05-07T07:08:37.276Z,399.38
2023-05-07T07:09:37.265Z,410.62
2023-05-07T07:10:37.264Z,416.25
2023-05-07T07:11:37.276Z,427.50
2023-05-07T07:12:37.358Z,461.25
2023-05-07T07:13:37.222Z,444.38
2023-05-07T07:14:37.193Z,427.50
2023-05-07T07:15:37.306Z,405.00
2023-05-07T07:16:37.261Z,410.62
2023-05-07T07:17:37.201Z,438.75
2023-05-07T07:18:37.151Z,433.12
2023-05-07T07:19:37.135Z,393.75
2023-05-07T07:20:37.123Z,399.38
2023-05-07T07:21:37.192Z,438.75
2023-05-07T07:22:37.113Z,450.00
2023-05-07T07:23:37.107Z,511.88
2023-05-07T07:24:37.092Z,562.50
2023-05-07T07:25:37.120Z,579.38
2023-05-07T07:26:37.097Z,601.88
2023-05-07T07:27:37.082Z,635.62
2023-05-07T07:28:37.063Z,658.12
2023-05-07T07:29:37.048Z,641.25
2023-05-07T07:30:37.053Z,601.88
2023-05-07T07:31:37.004Z,618.75
2023-05-07T07:32:37.035Z,658.12
2023-05-07T07:33:36.990Z,675.00
2023-05-07T07:34:37.012Z,618.75
2023-05-07T07:35:37.017Z,601.88
2023-05-07T07:36:45.641Z,556.88
2023-05-07T07:37:37.937Z,517.50
2023-05-07T07:38:36.949Z,630.00
2023-05-07T07:39:36.960Z,703.12
2023-05-07T07:40:36.889Z,725.62
2023-05-07T07:41:36.893Z,905.62
2023-05-07T07:42:36.894Z,1085.62
2023-05-07T07:43:36.875Z,1181.25
2023-05-07T07:44:36.913Z,1198.12
2023-05-07T07:45:36.861Z,1147.50
2023-05-07T07:46:36.956Z,1108.12
2023-05-07T07:47:36.886Z,1080.00
2023-05-07T07:48:36.839Z,1125.00
2023-05-07T07:49:36.834Z,1113.75
2023-05-07T07:50:44.514Z,1046.25
2023-05-07T07:51:37.764Z,1006.88
2023-05-07T07:52:36.766Z,1040.62
2023-05-07T07:53:36.791Z,1040.62
2023-05-07T07:54:36.743Z,978.75
2023-05-07T07:55:36.735Z,888.75
2023-05-07T07:56:36.731Z,888.75
2023-05-07T07:57:36.700Z,821.25
2023-05-07T07:58:36.741Z,798.75
2023-05-07T07:59:36.697Z,759.38
2023-05-07T08:00:36.667Z,731.25
2023-05-07T08:01:36.673Z,804.38
2023-05-07T08:02:36.810Z,871.88
2023-05-07T08:03:36.764Z,810.00
2023-05-07T08:04:36.903Z,793.12
2023-05-07T08:05:36.610Z,776.25
2023-05-07T08:06:36.661Z,798.75
2023-05-07T08:07:36.641Z,793.12
2023-05-07T08:08:36.610Z,753.75
2023-05-07T08:09:36.570Z,736.88
2023-05-07T08:10:36.567Z,675.00
2023-05-07T08:11:36.556Z,658.12
2023-05-07T08:12:36.600Z,675.00
2023-05-07T08:13:36.560Z,675.00
2023-05-07T08:14:36.512Z,691.88
2023-05-07T08:15:36.526Z,748.12
2023-05-07T08:16:36.578Z,759.38
2023-05-07T08:17:36.524Z,798.75
2023-05-07T08:18:36.453Z,821.25
2023-05-07T08:19:36.452Z,871.88
2023-05-07T08:20:36.454Z,911.25
2023-05-07T08:21:36.475Z,883.12
2023-05-07T08:22:36.446Z,832.50
2023-05-07T08:23:36.411Z,798.75
2023-05-07T08:24:36.401Z,720.00
2023-05-07T08:25:36.402Z,849.38
2023-05-07T08:26:36.405Z,990.00
2023-05-07T08:27:36.368Z,973.12
2023-05-07T08:28:36.361Z,900.00
2023-05-07T08:29:36.354Z,815.62
2023-05-07T08:30:36.368Z,742.50
2023-05-07T08:31:36.371Z,708.75
2023-05-07T08:32:36.374Z,680.62
2023-05-07T08:33:36.305Z,618.75
2023-05-07T08:34:36.312Z,579.38
2023-05-07T08:35:36.295Z,545.62
2023-05-07T08:36:36.292Z,528.75
2023-05-07T08:37:36.268Z,652.50
2023-05-07T08:38:36.240Z,759.38
2023-05-07T08:39:36.252Z,691.88
2023-05-07T08:40:36.272Z,658.12
2023-05-07T08:41:36.202Z,669.38
2023-05-07T08:42:36.190Z,652.50
2023-05-07T08:43:36.205Z,618.75
2023-05-07T08:44:36.211Z,596.25
2023-05-07T08:45:36.178Z,596.25
2023-05-07T08:46:36.188Z,607.50
2023-05-07T08:47:36.151Z,596.25
2023-05-07T08:48:36.126Z,585.00
2023-05-07T08:49:36.139Z,630.00
2023-05-07T08:50:36.096Z,686.25
2023-05-07T08:51:36.081Z,787.50
2023-05-07T08:52:36.083Z,922.50
2023-05-07T08:53:36.102Z,1023.75
2023-05-07T08:54:36.076Z,1192.50
2023-05-07T08:55:36.042Z,1462.50
2023-05-07T08:56:36.030Z,1479.38
2023-05-07T08:57:36.009Z,1501.88
2023-05-07T08:58:36.062Z,1558.12
2023-05-07T08:59:36.023Z,1591.88
2023-05-07T09:00:35.977Z,1473.75
2023-05-07T09:01:36.000Z,1501.88
2023-05-07T09:02:35.975Z,1575.00
2023-05-07T09:03:36.064Z,1411.88
2023-05-07T09:04:35.934Z,1237.50
2023-05-07T09:05:35.927Z,1153.12
2023-05-07T09:06:35.914Z,1119.38
2023-05-07T09:07:35.909Z,1293.75
2023-05-07T09:08:35.920Z,3195.00
2023-05-07T09:09:35.889Z,1541.25
2023-05-07T09:10:35.860Z,1350.00
2023-05-07T09:11:35.852Z,1181.25
2023-05-07T09:12:35.886Z,1029.38
2023-05-07T09:13:35.864Z,939.38
2023-05-07T09:14:35.817Z,900.00
2023-05-07T09:15:35.800Z,956.25
2023-05-07T09:16:35.803Z,1141.88
2023-05-07T09:17:35.878Z,1293.75
2023-05-07T09:18:35.755Z,1260.00
2023-05-07T09:19:35.746Z,1125.00
2023-05-07T09:20:35.755Z,1130.62
2023-05-07T09:21:35.745Z,1310.62
2023-05-07T09:22:35.746Z,1788.75
2023-05-07T09:23:35.720Z,1850.62
2023-05-07T09:24:35.703Z,1816.88
2023-05-07T09:25:35.694Z,1642.50
2023-05-07T09:26:35.731Z,1473.75
2023-05-07T09:27:35.711Z,1378.12
2023-05-07T09:28:35.666Z,2131.88
2023-05-07T09:29:35.640Z,1968.75
2023-05-07T09:30:35.642Z,1726.88
2023-05-07T09:31:35.719Z,1563.75
2023-05-07T09:32:35.627Z,1490.62
2023-05-07T09:33:35.593Z,1496.25
2023-05-07T09:34:35.577Z,2441.25
2023-05-07T09:35:35.582Z,1816.88
2023-05-07T09:36:35.589Z,2008.12
2023-05-07T09:37:35.594Z,1715.62
2023-05-07T09:38:35.536Z,1591.88
2023-05-07T09:39:35.524Z,1563.75
2023-05-07T09:40:35.558Z,1546.88
2023-05-07T09:41:35.540Z,1473.75
2023-05-07T09:42:35.498Z,1383.75
2023-05-07T09:43:35.499Z,1310.62
2023-05-07T09:44:35.481Z,1226.25
2023-05-07T09:45:35.551Z,1215.00
2023-05-07T09:46:35.458Z,1226.25
2023-05-07T09:47:35.507Z,1231.88
2023-05-07T09:48:35.434Z,1237.50
2023-05-07T09:49:35.437Z,1265.62
2023-05-07T09:50:35.418Z,1305.00
2023-05-07T09:51:35.389Z,1355.62
2023-05-07T09:52:35.372Z,1378.12
2023-05-07T09:53:35.378Z,1305.00
2023-05-07T09:54:35.361Z,1231.88
2023-05-07T09:55:35.394Z,1389.38
2023-05-07T09:56:35.354Z,1648.12
2023-05-07T09:57:35.332Z,2036.25
2023-05-07T09:58:35.304Z,1665.00
2023-05-07T09:59:35.343Z,1569.38
2023-05-07T10:00:35.337Z,1710.00
2023-05-07T10:01:35.333Z,1653.75
2023-05-07T10:02:35.319Z,1473.75
2023-05-07T10:03:35.284Z,1355.62
2023-05-07T10:04:35.295Z,1293.75
2023-05-07T10:05:35.248Z,1237.50
2023-05-07T10:06:35.227Z,1119.38
2023-05-07T10:07:35.230Z,1001.25
2023-05-07T10:08:35.240Z,1006.88
2023-05-07T10:09:35.219Z,1125.00
2023-05-07T10:10:35.186Z,1231.88
2023-05-07T10:11:35.177Z,1361.25
2023-05-07T10:12:35.209Z,1434.38
2023-05-07T10:13:35.208Z,1473.75
2023-05-07T10:14:35.146Z,1400.62
2023-05-07T10:15:35.117Z,1237.50
2023-05-07T10:16:35.105Z,1068.75
2023-05-07T10:17:35.133Z,961.88
2023-05-07T10:18:35.159Z,933.75
2023-05-07T10:19:35.082Z,922.50
2023-05-07T10:20:35.043Z,911.25
2023-05-07T10:21:35.049Z,1012.50
2023-05-07T10:22:35.064Z,1102.50
2023-05-07T10:23:35.085Z,1119.38
2023-05-07T10:24:35.083Z,1080.00
2023-05-07T10:25:35.025Z,1018.12
2023-05-07T10:26:35.027Z,950.62
2023-05-07T10:27:35.015Z,933.75
2023-05-07T10:28:34.986Z,950.62
2023-05-07T10:29:35.101Z,984.38
2023-05-07T10:30:36.792Z,984.38
2023-05-07T10:31:35.034Z,967.50
2023-05-07T10:32:35.009Z,978.75
2023-05-07T10:33:34.918Z,984.38
2023-05-07T10:34:34.906Z,928.12
2023-05-07T10:35:34.921Z,939.38
2023-05-07T10:36:36.946Z,956.25
2023-05-07T10:37:34.906Z,866.25
2023-05-07T10:38:34.860Z,826.88
2023-05-07T10:39:34.861Z,838.12
2023-05-07T10:40:34.838Z,838.12
2023-05-07T10:41:34.860Z,849.38
2023-05-07T10:42:34.828Z,804.38
2023-05-07T10:43:34.804Z,691.88
2023-05-07T10:44:34.813Z,669.38
2023-05-07T10:45:34.792Z,770.62
2023-05-07T10:46:34.867Z,877.50
2023-05-07T10:47:34.764Z,877.50
2023-05-07T10:48:34.785Z,832.50
2023-05-07T10:49:34.719Z,866.25
2023-05-07T10:50:34.779Z,1012.50
2023-05-07T10:51:34.739Z,1186.88
2023-05-07T10:52:34.712Z,1254.38
2023-05-07T10:53:34.669Z,1378.12
2023-05-07T10:54:36.309Z,1440.00
2023-05-07T10:55:34.710Z,1389.38
2023-05-07T10:56:34.657Z,1293.75
2023-05-07T10:57:34.633Z,1215.00
2023-05-07T10:58:34.660Z,1136.25
2023-05-07T10:59:34.611Z,1102.50
2023-05-07T11:00:39.372Z,1063.12
2023-05-07T11:01:34.617Z,1040.62
2023-05-07T11:02:34.618Z,990.00
2023-05-07T11:03:34.585Z,911.25
2023-05-07T11:04:34.632Z,855.00
2023-05-07T11:05:37.329Z,838.12
2023-05-07T11:06:34.551Z,939.38
2023-05-07T11:07:34.527Z,1051.88
2023-05-07T11:08:34.527Z,1136.25
2023-05-07T11:09:34.600Z,1226.25
2023-05-07T11:10:34.510Z,1265.62
2023-05-07T11:11:36.105Z,1136.25
2023-05-07T11:12:34.483Z,871.88
2023-05-07T11:13:34.453Z,691.88
2023-05-07T11:14:34.485Z,652.50
2023-05-07T11:15:34.430Z,680.62
2023-05-07T11:16:34.441Z,714.38
2023-05-07T11:17:37.013Z,804.38
2023-05-07T11:18:34.419Z,1035.00
2023-05-07T11:19:34.402Z,1248.75
2023-05-07T11:20:34.372Z,1518.75
2023-05-07T11:21:34.351Z,1715.62
2023-05-07T11:22:34.358Z,1704.38
2023-05-07T11:23:34.389Z,1681.88
2023-05-07T11:24:34.335Z,1642.50
2023-05-07T11:25:34.334Z,1631.25
2023-05-07T11:26:34.336Z,1541.25
2023-05-07T11:27:34.294Z,1485.00
2023-05-07T11:28:34.332Z,1462.50
2023-05-07T11:29:34.283Z,1473.75
2023-05-07T11:30:34.256Z,1395.00
2023-05-07T11:31:38.952Z,1327.50
2023-05-07T11:32:34.350Z,1310.62
2023-05-07T11:33:34.332Z,1316.25
2023-05-07T11:34:34.215Z,1265.62
2023-05-07T11:35:36.908Z,1209.38
2023-05-07T11:36:34.219Z,1158.75
2023-05-07T11:37:34.212Z,1254.38
2023-05-07T11:38:34.175Z,1411.88
2023-05-07T11:39:34.177Z,1485.00
2023-05-07T11:40:34.181Z,1552.50
2023-05-07T11:41:34.185Z,1462.50
2023-05-07T11:42:34.170Z,1181.25
2023-05-07T11:43:34.130Z,933.75
2023-05-07T11:44:34.096Z,821.25
2023-05-07T11:45:34.125Z,748.12
2023-05-07T11:46:34.095Z,720.00
2023-05-07T11:47:34.148Z,708.75
2023-05-07T11:48:34.096Z,736.88
2023-05-07T11:49:34.034Z,765.00
2023-05-07T11:50:34.033Z,815.62
2023-05-07T11:51:34.063Z,883.12
2023-05-07T11:52:34.062Z,984.38
2023-05-07T11:53:34.001Z,1046.25
2023-05-07T11:54:34.005Z,1035.00
2023-05-07T11:55:33.963Z,928.12
2023-05-07T11:56:34.046Z,826.88
2023-05-07T11:57:33.946Z,855.00
2023-05-07T11:58:33.962Z,990.00
2023-05-07T11:59:33.941Z,1141.88
2023-05-07T12:00:33.932Z,1305.00
2023-05-07T12:01:33.933Z,1417.50
2023-05-07T12:02:33.969Z,1513.12
2023-05-07T12:03:36.511Z,1681.88
2023-05-07T12:04:33.889Z,1743.75
2023-05-07T12:05:33.880Z,2008.12
2023-05-07T12:06:33.894Z,2947.50
2023-05-07T12:07:33.852Z,2407.50
2023-05-07T12:08:33.830Z,1923.75
2023-05-07T12:09:33.825Z,1597.50
2023-05-07T12:10:33.851Z,2930.62
2023-05-07T12:11:33.856Z,3650.62
2023-05-07T12:12:33.803Z,3448.12
2023-05-07T12:13:33.782Z,2486.25
2023-05-07T12:14:33.759Z,2553.75
2023-05-07T12:15:33.779Z,2756.25
2023-05-07T12:16:33.805Z,2587.50
2023-05-07T12:17:33.820Z,2570.62
2023-05-07T12:18:33.734Z,2716.88
2023-05-07T12:19:33.717Z,2638.12
2023-05-07T12:20:33.725Z,2576.25
2023-05-07T12:21:33.753Z,2919.38
2023-05-07T12:22:33.702Z,2896.88
2023-05-07T12:23:33.652Z,2469.38
2023-05-07T12:24:33.695Z,2137.50
2023-05-07T12:25:33.672Z,1698.75
2023-05-07T12:26:33.635Z,1665.00
2023-05-07T12:27:33.609Z,1541.25
2023-05-07T12:28:33.637Z,1434.38
2023-05-07T12:29:33.619Z,1406.25
2023-05-07T12:30:33.584Z,1344.38
2023-05-07T12:31:33.619Z,1248.75
2023-05-07T12:32:33.605Z,1130.62
2023-05-07T12:33:33.552Z,1051.88
2023-05-07T12:34:33.632Z,995.62
2023-05-07T12:35:33.523Z,905.62
2023-05-07T12:36:33.558Z,877.50
2023-05-07T12:37:33.522Z,900.00
2023-05-07T12:38:33.510Z,894.38
2023-05-07T12:39:33.526Z,877.50